Time;durP1;ratioP1;P1;durP2;ratioP2;P2;SDS_P1;SDS_P2;PMS_P1;PMS_P2;Temp;Humidity;BMP_temperature;BMP_pressure;BME280_temperature;BME280_humidity;BME280_pressure;Samples;Min_cycle;Max_cycle;Signal;HPM_P1;HPM_P2
2023/04/20 00:00:10;;;;;;;20.75;10.68;;;9.70;99.90;;;;;;6223624;22;20658;-78
2023/04/20 00:02:40;;;;;;;23.33;10.98;;;9.70;99.90;;;;;;6250825;22;20363;-78
2023/04/20 00:05:10;;;;;;;27.58;12.20;;;9.60;99.90;;;;;;6224645;22;20019;-78
2023/04/20 00:07:40;;;;;;;25.35;12.30;;;9.60;99.90;;;;;;6224958;22;20363;-78
2023/04/20 00:10:08;;;;;;;24.48;12.13;;;9.50;99.90;;;;;;6249223;22;20031;-79
2023/04/20 00:12:35;;;;;;;23.05;12.07;;;9.50;99.90;;;;;;6248057;22;20015;-78
2023/04/20 00:15:03;;;;;;;24.30;12.20;;;9.50;99.90;;;;;;6247192;22;20020;-78
2023/04/20 00:17:30;;;;;;;26.35;11.77;;;9.40;99.90;;;;;;6248609;22;20024;-78
2023/04/20 00:19:58;;;;;;;21.55;11.70;;;9.40;99.90;;;;;;6223377;22;20049;-78
2023/04/20 00:22:27;;;;;;;21.48;9.82;;;9.40;99.90;;;;;;6249033;22;20627;-78
2023/04/20 00:24:54;;;;;;;22.30;9.57;;;9.40;99.90;;;;;;6249049;22;20046;-78
2023/04/20 00:27:21;;;;;;;20.88;9.77;;;9.40;99.90;;;;;;6224573;22;20097;-78
2023/04/20 00:29:48;;;;;;;21.52;10.52;;;9.40;99.90;;;;;;6222909;22;20023;-78
2023/04/20 00:32:15;;;;;;;21.15;10.75;;;9.40;99.90;;;;;;6248514;22;20026;-78
2023/04/20 00:34:42;;;;;;;19.65;9.75;;;9.40;99.90;;;;;;6223336;22;20019;-78
2023/04/20 00:37:09;;;;;;;20.27;10.63;;;9.40;99.90;;;;;;6223180;22;20040;-78
2023/04/20 00:39:36;;;;;;;21.17;10.20;;;9.30;99.90;;;;;;6247882;22;20019;-78
2023/04/20 00:42:07;;;;;;;19.55;9.68;;;9.30;99.90;;;;;;6222557;22;20020;-78
2023/04/20 00:44:35;;;;;;;21.70;9.55;;;9.30;99.90;;;;;;6248361;22;20039;-78
2023/04/20 00:47:02;;;;;;;20.33;10.45;;;9.20;99.90;;;;;;6222448;22;20722;-78
2023/04/20 00:49:30;;;;;;;21.85;10.23;;;9.20;99.90;;;;;;6222877;22;20066;-78
2023/04/20 00:51:58;;;;;;;24.05;9.75;;;9.20;99.90;;;;;;6246718;22;20032;-78
2023/04/20 00:54:27;;;;;;;23.27;10.60;;;9.20;99.90;;;;;;6223275;22;20019;-78
2023/04/20 00:56:56;;;;;;;22.40;10.60;;;9.20;99.90;;;;;;6222317;22;20489;-78
2023/04/20 00:59:24;;;;;;;22.73;9.88;;;9.20;99.90;;;;;;6246744;22;20058;-78
2023/04/20 01:01:52;;;;;;;23.77;10.38;;;9.10;99.90;;;;;;6248785;22;20040;-78
2023/04/20 01:04:19;;;;;;;20.08;8.75;;;9.10;99.90;;;;;;6222507;22;20031;-78
2023/04/20 01:06:47;;;;;;;20.10;10.23;;;9.10;99.90;;;;;;6222879;22;20024;-79
2023/04/20 01:09:14;;;;;;;22.33;10.43;;;9.10;99.90;;;;;;6223037;22;20030;-78
2023/04/20 01:11:43;;;;;;;21.30;9.57;;;9.20;99.90;;;;;;6246992;22;20024;-78
2023/04/20 01:14:15;;;;;;;19.75;9.45;;;9.10;99.90;;;;;;6249719;22;20016;-78
2023/04/20 01:16:43;;;;;;;22.33;9.07;;;9.10;99.90;;;;;;6222393;22;20098;-78
2023/04/20 01:19:11;;;;;;;22.02;9.68;;;9.10;99.90;;;;;;6221856;22;20074;-78
2023/04/20 01:21:39;;;;;;;20.02;10.30;;;9.10;99.90;;;;;;6222263;22;20020;-78
2023/04/20 01:24:06;;;;;;;22.80;10.82;;;9.10;99.90;;;;;;6221973;22;20020;-78
2023/04/20 01:26:34;;;;;;;24.52;11.25;;;9.00;99.90;;;;;;6222578;22;20659;-78
2023/04/20 01:29:01;;;;;;;22.63;11.35;;;9.10;99.90;;;;;;6222695;22;20019;-78
2023/04/20 01:31:28;;;;;;;22.17;9.73;;;9.10;99.90;;;;;;6222559;22;20074;-78
2023/04/20 01:33:57;;;;;;;24.63;10.57;;;9.10;99.90;;;;;;6220816;22;20028;-78
2023/04/20 01:36:24;;;;;;;22.55;10.60;;;9.10;99.90;;;;;;6221569;22;20463;-78
2023/04/20 01:38:51;;;;;;;20.67;10.88;;;9.10;99.90;;;;;;6220990;22;20031;-78
2023/04/20 01:41:20;;;;;;;25.10;11.38;;;9.00;99.90;;;;;;6247287;22;20402;-78
2023/04/20 01:43:47;;;;;;;19.50;9.80;;;9.00;99.90;;;;;;6221579;22;20134;-78
2023/04/20 01:46:14;;;;;;;22.27;10.57;;;9.00;99.90;;;;;;6273545;22;20019;-78
2023/04/20 01:48:42;;;;;;;21.60;9.82;;;9.00;99.90;;;;;;6221731;22;20051;-78
2023/04/20 01:51:09;;;;;;;24.90;10.50;;;8.90;99.90;;;;;;6246155;22;20351;-78
2023/04/20 01:53:38;;;;;;;25.20;11.25;;;8.90;99.90;;;;;;6247519;22;20786;-78
2023/04/20 01:56:06;;;;;;;21.67;10.27;;;8.90;99.90;;;;;;6196119;22;20066;-78
2023/04/20 01:58:33;;;;;;;25.63;11.55;;;8.90;99.90;;;;;;6247213;22;20674;-78
2023/04/20 02:01:01;;;;;;;21.63;10.13;;;8.80;99.90;;;;;;6222259;22;20027;-79
2023/04/20 02:03:28;;;;;;;23.15;10.18;;;8.80;99.90;;;;;;6247703;22;20030;-78
2023/04/20 02:05:56;;;;;;;21.60;10.18;;;8.80;99.90;;;;;;6247169;22;20619;-78
2023/04/20 02:08:27;;;;;;;21.70;10.73;;;8.80;99.90;;;;;;6223532;22;20024;-78
2023/04/20 02:10:54;;;;;;;21.95;11.00;;;8.70;99.90;;;;;;6247294;22;20583;-79
2023/04/20 02:13:21;;;;;;;26.65;12.05;;;8.70;99.90;;;;;;6245521;22;20015;-78
2023/04/20 02:15:49;;;;;;;21.23;10.40;;;8.80;99.90;;;;;;6219703;22;20019;-78
2023/04/20 02:18:16;;;;;;;24.08;11.00;;;8.70;99.90;;;;;;6222281;22;20024;-78
2023/04/20 02:20:44;;;;;;;23.85;10.57;;;8.60;99.90;;;;;;6246601;22;20019;-78
2023/04/20 02:23:12;;;;;;;24.27;10.82;;;8.70;99.90;;;;;;6222551;22;20768;-78
2023/04/20 02:25:39;;;;;;;20.65;9.50;;;8.50;99.90;;;;;;6222989;22;20024;-78
2023/04/20 02:28:06;;;;;;;18.95;8.20;;;8.50;99.90;;;;;;6220082;22;20027;-78
2023/04/20 02:30:33;;;;;;;19.17;8.95;;;8.50;99.90;;;;;;6221692;22;20761;-78
2023/04/20 02:33:00;;;;;;;18.67;9.52;;;8.40;99.90;;;;;;6222203;22;20045;-78
2023/04/20 02:35:27;;;;;;;24.75;10.55;;;8.50;99.90;;;;;;6220921;22;20098;-78
2023/04/20 02:37:54;;;;;;;23.77;10.45;;;8.50;99.90;;;;;;6246295;22;20025;-78
2023/04/20 02:40:22;;;;;;;20.90;8.88;;;8.50;99.90;;;;;;6244629;22;20032;-79
2023/04/20 02:42:49;;;;;;;21.58;9.48;;;8.50;99.90;;;;;;6222435;22;20469;-78
2023/04/20 02:45:16;;;;;;;23.00;10.13;;;8.50;99.90;;;;;;6222158;22;20023;-78
2023/04/20 02:47:45;;;;;;;21.60;9.70;;;8.50;99.90;;;;;;6247742;22;20107;-78
2023/04/20 02:50:14;;;;;;;19.88;9.60;;;8.50;99.90;;;;;;6220997;22;20019;-78
2023/04/20 02:53:00;;;;;;;26.85;11.30;;;8.50;99.90;;;;;;6247424;22;20019;-78
2023/04/20 02:55:29;;;;;;;19.20;8.90;;;8.50;99.90;;;;;;6247057;22;20106;-78
2023/04/20 02:58:01;;;;;;;22.23;9.30;;;8.50;99.90;;;;;;6221417;22;20099;-78
2023/04/20 03:00:48;;;;;;;27.55;10.63;;;8.50;99.90;;;;;;6250909;22;20019;-78
2023/04/20 03:03:16;;;;;;;18.05;9.02;;;8.50;99.90;;;;;;6246185;22;20016;-78
2023/04/20 03:05:43;;;;;;;23.08;10.27;;;8.50;99.90;;;;;;6221018;22;20500;-79
2023/04/20 03:08:11;;;;;;;23.13;10.82;;;8.40;99.90;;;;;;6246699;22;20026;-78
2023/04/20 03:10:38;;;;;;;25.45;11.02;;;8.40;99.90;;;;;;6221800;22;20019;-78
2023/04/20 03:13:13;;;;;;;24.40;10.35;;;8.40;99.90;;;;;;6247554;22;20022;-78
2023/04/20 03:15:51;;;;;;;17.35;9.05;;;8.40;99.90;;;;;;6223468;22;20073;-78
2023/04/20 03:18:29;;;;;;;19.80;9.07;;;8.40;99.90;;;;;;6246715;22;20015;-79
2023/04/20 03:20:56;;;;;;;20.45;8.88;;;8.40;99.90;;;;;;6222461;22;20020;-79
2023/04/20 03:23:23;;;;;;;20.67;9.05;;;8.40;99.90;;;;;;6222449;22;20077;-79
2023/04/20 03:25:50;;;;;;;21.88;10.40;;;8.40;99.90;;;;;;6249137;22;20506;-78
2023/04/20 03:28:29;;;;;;;20.75;9.60;;;8.30;99.90;;;;;;6226457;22;20016;-79
2023/04/20 03:30:56;;;;;;;25.17;10.18;;;8.30;99.90;;;;;;6224528;22;20611;-78
2023/04/20 03:33:23;;;;;;;22.77;9.80;;;8.30;99.90;;;;;;6223931;22;20077;-78
2023/04/20 03:35:50;;;;;;;25.52;10.18;;;8.30;99.90;;;;;;6224884;22;20020;-78
2023/04/20 03:38:17;;;;;;;21.90;9.27;;;8.20;99.90;;;;;;6250120;22;20020;-78
2023/04/20 03:40:45;;;;;;;23.30;10.23;;;8.20;99.90;;;;;;6224348;22;20023;-78
2023/04/20 03:43:14;;;;;;;22.10;9.43;;;8.20;99.90;;;;;;6225071;22;20023;-78
2023/04/20 03:45:42;;;;;;;19.98;8.90;;;8.20;99.90;;;;;;6223780;22;20114;-78
2023/04/20 03:48:09;;;;;;;23.70;11.00;;;8.20;99.90;;;;;;6224318;22;20106;-78
2023/04/20 03:50:36;;;;;;;18.48;9.50;;;8.10;99.90;;;;;;6223115;22;20022;-78
2023/04/20 03:53:03;;;;;;;22.27;10.35;;;8.20;99.90;;;;;;6222651;22;20019;-78
2023/04/20 03:55:31;;;;;;;19.17;8.48;;;8.10;99.90;;;;;;6247692;22;20465;-79
2023/04/20 03:58:07;;;;;;;21.67;9.70;;;8.10;99.90;;;;;;6223286;22;20015;-78
2023/04/20 04:01:08;;;;;;;20.05;10.00;;;8.10;99.90;;;;;;6247517;22;20031;-78
2023/04/20 04:03:38;;;;;;;22.92;9.48;;;8.10;99.90;;;;;;6224258;22;20699;-77
2023/04/20 04:06:09;;;;;;;22.77;10.85;;;8.20;99.90;;;;;;6224359;22;20055;-78
2023/04/20 04:08:36;;;;;;;23.30;10.68;;;8.20;99.90;;;;;;6248549;22;20106;-78
2023/04/20 04:11:03;;;;;;;25.20;10.75;;;8.10;99.90;;;;;;6248281;22;20020;-78
2023/04/20 04:13:31;;;;;;;26.20;10.40;;;8.20;99.90;;;;;;6248646;22;20016;-78
2023/04/20 04:16:01;;;;;;;22.17;10.43;;;8.20;99.90;;;;;;6247688;22;20030;-78
2023/04/20 04:18:31;;;;;;;27.48;10.68;;;8.20;99.90;;;;;;6247623;22;20031;-78
2023/04/20 04:21:03;;;;;;;23.33;10.65;;;8.20;99.90;;;;;;6247363;22;20089;-78
2023/04/20 04:23:33;;;;;;;23.23;10.65;;;8.30;99.90;;;;;;6247250;22;20110;-78
2023/04/20 04:26:08;;;;;;;24.17;10.93;;;8.30;99.90;;;;;;6223482;22;20027;-78
2023/04/20 04:28:39;;;;;;;25.85;11.55;;;8.40;99.90;;;;;;6247405;22;20023;-78
2023/04/20 04:31:18;;;;;;;26.55;11.48;;;8.30;99.90;;;;;;6225303;22;20020;-78
2023/04/20 04:33:46;;;;;;;26.15;11.52;;;8.40;99.90;;;;;;6222615;22;20098;-78
2023/04/20 04:36:25;;;;;;;20.88;10.32;;;8.40;99.90;;;;;;6248808;22;20016;-78
2023/04/20 04:38:55;;;;;;;22.30;10.88;;;8.40;99.90;;;;;;6251083;22;20490;-78
2023/04/20 04:41:22;;;;;;;20.70;9.82;;;8.50;99.90;;;;;;6223463;22;20023;-78
2023/04/20 04:43:50;;;;;;;21.08;10.18;;;8.50;99.90;;;;;;6247710;22;20731;-78
2023/04/20 04:46:26;;;;;;;20.77;9.25;;;8.50;99.90;;;;;;6225089;22;20038;-78
2023/04/20 04:48:59;;;;;;;22.05;9.02;;;8.50;99.90;;;;;;6248419;22;20102;-78
2023/04/20 04:51:27;;;;;;;21.10;8.45;;;8.60;99.90;;;;;;6222665;22;20099;-78
2023/04/20 04:53:54;;;;;;;21.60;9.55;;;8.70;99.90;;;;;;6222913;22;20106;-78
2023/04/20 04:56:22;;;;;;;18.42;9.15;;;8.70;99.90;;;;;;6275017;22;20020;-78
2023/04/20 04:58:49;;;;;;;18.60;7.82;;;8.70;99.90;;;;;;6245639;22;20015;-78
2023/04/20 05:01:16;;;;;;;15.57;7.78;;;8.80;99.90;;;;;;6224312;22;20142;-79
2023/04/20 05:03:43;;;;;;;14.82;8.15;;;8.80;99.90;;;;;;6223413;22;20020;-78
2023/04/20 05:06:11;;;;;;;16.30;8.00;;;8.80;99.90;;;;;;6248366;22;20055;-78
2023/04/20 05:08:38;;;;;;;18.02;8.65;;;8.90;99.90;;;;;;6222764;22;20026;-78
2023/04/20 05:11:05;;;;;;;16.83;8.15;;;8.90;99.90;;;;;;6221909;22;20050;-78
2023/04/20 05:13:32;;;;;;;17.67;7.75;;;9.00;99.90;;;;;;6249333;22;20015;-78
2023/04/20 05:15:59;;;;;;;16.50;7.78;;;9.10;99.90;;;;;;6249119;22;20015;-78
2023/04/20 05:18:26;;;;;;;19.45;8.48;;;9.10;99.90;;;;;;6274990;22;20095;-78
2023/04/20 05:20:53;;;;;;;15.98;8.35;;;9.20;99.90;;;;;;6222332;22;20094;-79
2023/04/20 05:23:20;;;;;;;19.85;9.98;;;9.20;99.90;;;;;;6223612;22;20065;-78
2023/04/20 05:25:47;;;;;;;19.08;9.50;;;9.30;99.90;;;;;;6247962;22;20026;-78
2023/04/20 05:28:15;;;;;;;19.10;9.68;;;9.40;99.90;;;;;;6273303;22;20755;-78
2023/04/20 05:30:42;;;;;;;17.75;9.65;;;9.40;99.90;;;;;;6246319;22;20026;-78
2023/04/20 05:33:09;;;;;;;18.58;9.52;;;9.50;99.90;;;;;;6245964;22;20034;-78
2023/04/20 05:35:39;;;;;;;18.92;9.00;;;9.60;99.90;;;;;;6248709;22;20355;-78
2023/04/20 05:38:06;;;;;;;16.63;8.10;;;9.70;99.90;;;;;;6248781;22;20020;-78
2023/04/20 05:40:36;;;;;;;18.08;9.65;;;9.80;99.90;;;;;;6247551;22;20099;-78
2023/04/20 05:43:03;;;;;;;18.15;9.48;;;9.80;99.90;;;;;;6248963;22;20015;-78
2023/04/20 05:45:32;;;;;;;19.98;9.73;;;9.90;99.90;;;;;;6274137;22;20062;-78
2023/04/20 05:48:00;;;;;;;18.92;9.07;;;10.00;99.90;;;;;;6274707;22;20030;-78
2023/04/20 05:50:27;;;;;;;17.80;8.10;;;10.10;99.90;;;;;;6219941;22;20411;-78
2023/04/20 05:52:54;;;;;;;16.75;8.63;;;10.20;99.90;;;;;;6222746;22;20355;-79
2023/04/20 05:55:21;;;;;;;17.58;8.15;;;10.30;99.90;;;;;;6247987;22;20029;-78
2023/04/20 05:57:50;;;;;;;17.38;8.80;;;10.40;99.90;;;;;;6209550;22;20451;-78
2023/04/20 06:00:19;;;;;;;16.80;7.93;;;10.40;99.90;;;;;;6213426;22;20027;-78
2023/04/20 06:02:46;;;;;;;16.40;8.38;;;10.50;99.90;;;;;;6207318;22;20024;-78
2023/04/20 06:05:13;;;;;;;15.02;7.85;;;10.50;99.90;;;;;;6232784;22;20024;-78
2023/04/20 06:07:40;;;;;;;15.43;7.38;;;10.70;99.90;;;;;;6259154;22;20019;-78
2023/04/20 06:10:08;;;;;;;13.88;7.50;;;10.80;99.90;;;;;;6232213;22;20243;-78
2023/04/20 06:12:35;;;;;;;12.25;6.75;;;11.00;99.90;;;;;;6205961;22;20024;-78
2023/04/20 06:15:05;;;;;;;12.27;6.68;;;11.00;99.90;;;;;;6260232;22;20019;-78
2023/04/20 06:17:35;;;;;;;12.38;6.68;;;11.20;99.90;;;;;;6231851;22;20024;-78
2023/04/20 06:20:03;;;;;;;12.43;5.68;;;11.30;99.90;;;;;;6209000;22;20069;-78
2023/04/20 06:22:31;;;;;;;13.05;6.32;;;11.50;99.90;;;;;;6264184;22;20473;-78
2023/04/20 06:24:59;;;;;;;11.45;6.13;;;11.60;99.90;;;;;;6247371;22;20019;-78
2023/04/20 06:27:26;;;;;;;11.35;6.30;;;11.80;99.90;;;;;;6243193;22;20364;-78
2023/04/20 06:29:54;;;;;;;10.35;6.30;;;11.80;99.90;;;;;;6209772;22;20430;-78
2023/04/20 06:32:22;;;;;;;10.98;5.85;;;12.00;99.90;;;;;;6260058;22;20011;-78
2023/04/20 06:34:49;;;;;;;12.55;6.18;;;12.10;99.90;;;;;;6232843;22;20469;-78
2023/04/20 06:37:17;;;;;;;10.63;6.35;;;12.20;99.40;;;;;;6208006;22;20500;-77
2023/04/20 06:39:44;;;;;;;11.07;5.88;;;12.30;99.50;;;;;;6235688;22;20028;-78
2023/04/20 06:42:12;;;;;;;11.75;6.07;;;12.40;97.90;;;;;;6220667;22;20023;-78
2023/04/20 06:44:40;;;;;;;11.38;5.60;;;12.40;97.00;;;;;;6248775;22;20016;-75
2023/04/20 06:47:07;;;;;;;10.95;5.40;;;12.60;96.30;;;;;;6236279;22;20045;-76
2023/04/20 06:49:36;;;;;;;10.80;5.60;;;12.60;96.20;;;;;;6208943;22;20024;-76
2023/04/20 06:52:04;;;;;;;9.15;5.55;;;12.70;94.80;;;;;;6232602;22;20085;-76
2023/04/20 06:54:31;;;;;;;13.48;6.30;;;12.80;95.40;;;;;;6263408;22;20015;-77
2023/04/20 06:56:59;;;;;;;9.85;6.03;;;13.00;95.00;;;;;;6211180;22;20042;-77
2023/04/20 06:59:26;;;;;;;10.20;5.97;;;13.10;95.40;;;;;;6231290;22;20030;-75
2023/04/20 07:01:53;;;;;;;8.95;5.47;;;13.30;94.20;;;;;;6239947;22;20030;-76
2023/04/20 07:04:21;;;;;;;9.23;5.55;;;13.40;93.80;;;;;;6241996;22;20077;-76
2023/04/20 07:06:48;;;;;;;17.67;6.50;;;13.50;93.50;;;;;;6235719;22;20447;-76
2023/04/20 07:09:19;;;;;;;10.02;5.97;;;13.50;91.90;;;;;;6212274;22;20024;-75
2023/04/20 07:11:46;;;;;;;10.43;5.93;;;13.60;91.60;;;;;;6240156;22;20455;-76
2023/04/20 07:14:13;;;;;;;10.48;5.82;;;13.80;91.90;;;;;;6234831;22;20027;-76
2023/04/20 07:16:40;;;;;;;10.48;5.40;;;13.90;91.40;;;;;;6237646;22;20023;-76
2023/04/20 07:19:08;;;;;;;12.88;5.85;;;13.90;90.70;;;;;;6261748;22;20077;-76
2023/04/20 07:21:35;;;;;;;10.82;5.70;;;14.00;90.10;;;;;;6211385;22;20027;-75
2023/04/20 07:24:02;;;;;;;8.90;4.68;;;14.10;89.90;;;;;;6246361;22;20024;-77
2023/04/20 07:26:30;;;;;;;8.00;4.95;;;14.20;88.80;;;;;;6267226;22;20016;-77
2023/04/20 07:28:57;;;;;;;7.72;5.40;;;14.20;84.80;;;;;;6215615;22;20038;-78
2023/04/20 07:31:24;;;;;;;8.18;4.78;;;14.30;86.50;;;;;;6213791;22;20408;-78
2023/04/20 07:33:51;;;;;;;7.32;4.57;;;14.40;86.80;;;;;;6242828;22;20105;-77
2023/04/20 07:36:20;;;;;;;9.05;5.03;;;14.60;88.60;;;;;;6216717;22;20031;-78
2023/04/20 07:38:48;;;;;;;7.60;4.60;;;14.70;86.80;;;;;;6217708;22;20023;-77
2023/04/20 07:41:15;;;;;;;8.10;4.38;;;14.90;89.30;;;;;;6243153;22;20761;-77
2023/04/20 07:43:43;;;;;;;7.57;5.10;;;15.00;88.10;;;;;;6243230;22;20023;-78
2023/04/20 07:46:19;;;;;;;9.25;4.97;;;15.10;87.60;;;;;;6244046;22;20023;-77
2023/04/20 07:48:47;;;;;;;9.35;4.88;;;15.20;84.90;;;;;;6240408;22;20058;-77
2023/04/20 07:51:14;;;;;;;8.15;4.88;;;15.20;84.50;;;;;;6237471;22;20019;-76
2023/04/20 07:53:42;;;;;;;9.90;5.53;;;15.20;83.60;;;;;;6234270;22;20019;-77
2023/04/20 07:56:09;;;;;;;9.10;4.97;;;15.20;83.50;;;;;;6236119;22;20098;-75
2023/04/20 07:58:37;;;;;;;8.93;4.97;;;15.40;86.40;;;;;;6234820;22;20405;-77
2023/04/20 08:01:05;;;;;;;11.23;5.88;;;15.70;86.90;;;;;;6216798;22;20023;-75
2023/04/20 08:03:34;;;;;;;8.95;5.15;;;15.80;84.40;;;;;;6213816;22;20114;-77
2023/04/20 08:06:01;;;;;;;8.25;4.97;;;15.80;84.10;;;;;;6214161;22;20429;-75
2023/04/20 08:08:29;;;;;;;6.57;4.50;;;15.50;82.20;;;;;;6210311;22;20085;-77
2023/04/20 08:10:57;;;;;;;7.53;4.97;;;15.50;82.60;;;;;;6236840;22;20026;-76
2023/04/20 08:13:26;;;;;;;9.23;5.10;;;15.50;80.60;;;;;;6239905;22;20042;-75
2023/04/20 08:15:53;;;;;;;8.80;5.10;;;15.70;81.30;;;;;;6209603;22;20026;-76
2023/04/20 08:18:20;;;;;;;6.95;4.32;;;15.60;81.30;;;;;;6235656;22;20435;-75
2023/04/20 08:20:47;;;;;;;8.80;4.75;;;15.90;81.10;;;;;;6265704;22;20027;-77
2023/04/20 08:23:14;;;;;;;9.60;5.78;;;15.90;81.40;;;;;;6216363;22;20103;-77
2023/04/20 08:25:41;;;;;;;10.13;4.90;;;16.00;80.50;;;;;;6214800;22;20050;-76
2023/04/20 08:28:08;;;;;;;7.45;4.45;;;16.00;81.00;;;;;;6214393;22;20027;-77
2023/04/20 08:30:45;;;;;;;8.48;4.63;;;16.10;79.20;;;;;;6236266;22;20023;-78
2023/04/20 08:33:12;;;;;;;8.05;4.93;;;16.30;79.90;;;;;;6216550;22;20020;-77
2023/04/20 08:35:40;;;;;;;8.60;4.13;;;16.30;79.90;;;;;;6214841;22;20020;-77
2023/04/20 08:38:07;;;;;;;9.13;4.07;;;16.50;79.90;;;;;;6244038;22;20039;-78
2023/04/20 08:40:35;;;;;;;7.28;4.40;;;16.50;81.00;;;;;;6211778;22;20027;-77
2023/04/20 08:43:02;;;;;;;11.27;5.50;;;16.50;78.70;;;;;;6236573;22;20332;-77
2023/04/20 08:45:30;;;;;;;9.85;5.15;;;16.70;81.90;;;;;;6216514;22;20028;-76
2023/04/20 08:48:05;;;;;;;8.57;5.10;;;16.70;79.80;;;;;;6237849;22;20386;-77
2023/04/20 08:50:32;;;;;;;5.63;3.92;;;16.80;80.60;;;;;;6237308;22;20019;-77
2023/04/20 08:53:02;;;;;;;7.88;3.60;;;16.60;76.60;;;;;;6237165;22;20553;-77
2023/04/20 08:55:29;;;;;;;5.32;3.38;;;16.40;76.60;;;;;;6213127;22;20024;-77
2023/04/20 08:57:56;;;;;;;5.38;3.67;;;16.60;74.90;;;;;;6216164;22;20019;-77
2023/04/20 09:00:23;;;;;;;5.32;3.50;;;16.80;77.20;;;;;;6269966;22;20077;-78
2023/04/20 09:02:52;;;;;;;8.00;3.72;;;16.90;74.10;;;;;;6238375;22;20023;-75
2023/04/20 09:05:30;;;;;;;8.35;3.95;;;16.90;73.70;;;;;;6212042;22;20030;-76
2023/04/20 09:08:00;;;;;;;7.28;4.43;;;16.80;74.20;;;;;;6241312;22;20849;-77
2023/04/20 09:10:41;;;;;;;8.23;4.43;;;17.00;73.90;;;;;;6218567;22;20447;-77
2023/04/20 09:13:21;;;;;;;5.95;3.25;;;17.00;73.80;;;;;;6267634;22;20423;-78
2023/04/20 09:15:48;;;;;;;6.15;4.22;;;17.20;73.40;;;;;;6236888;22;20020;-77
2023/04/20 09:18:15;;;;;;;5.85;3.33;;;17.50;75.20;;;;;;6211253;22;20499;-76
2023/04/20 09:20:42;;;;;;;6.28;3.90;;;17.70;72.10;;;;;;6211843;22;20019;-77
2023/04/20 09:23:14;;;;;;;6.25;3.60;;;17.80;74.60;;;;;;6237015;22;20395;-77
2023/04/20 09:25:42;;;;;;;4.90;2.97;;;17.70;72.60;;;;;;6235686;22;20040;-77
2023/04/20 09:28:10;;;;;;;4.60;3.20;;;17.20;71.90;;;;;;6263029;22;20019;-77
2023/04/20 09:30:45;;;;;;;6.13;3.70;;;17.20;71.60;;;;;;6213888;22;20023;-77
2023/04/20 09:33:13;;;;;;;5.93;2.95;;;17.50;70.50;;;;;;6210238;22;20562;-77
2023/04/20 09:35:41;;;;;;;3.45;2.60;;;17.80;69.60;;;;;;6235276;22;20133;-76
2023/04/20 09:38:10;;;;;;;5.63;3.03;;;18.00;66.90;;;;;;6242251;22;20020;-77
2023/04/20 09:40:37;;;;;;;6.30;3.70;;;17.90;67.80;;;;;;6238181;22;20023;-77
2023/04/20 09:43:22;;;;;;;4.72;3.17;;;17.50;71.20;;;;;;6210189;22;20028;-76
2023/04/20 09:46:02;;;;;;;4.63;3.33;;;17.00;70.80;;;;;;6265395;22;20030;-76
2023/04/20 09:48:29;;;;;;;6.07;3.10;;;17.40;73.20;;;;;;6247580;22;20073;-78
2023/04/20 09:51:02;;;;;;;5.03;3.30;;;17.70;72.70;;;;;;6236059;22;20019;-77
2023/04/20 09:53:30;;;;;;;4.55;2.92;;;18.10;72.40;;;;;;6214769;22;20019;-75
2023/04/20 09:55:58;;;;;;;3.83;2.70;;;18.40;70.20;;;;;;6236251;22;20295;-75
2023/04/20 09:58:26;;;;;;;5.50;3.65;;;18.10;67.40;;;;;;6234997;22;20030;-76
2023/04/20 10:00:53;;;;;;;6.10;3.47;;;18.00;68.90;;;;;;6237112;22;20561;-76
2023/04/20 10:03:20;;;;;;;6.82;3.50;;;17.80;70.00;;;;;;6260289;22;20027;-76
2023/04/20 10:05:48;;;;;;;5.03;3.65;;;17.80;72.00;;;;;;6235890;22;20028;-76
2023/04/20 10:08:19;;;;;;;7.40;3.25;;;17.70;72.60;;;;;;6208249;22;20077;-76
2023/04/20 10:10:48;;;;;;;5.05;3.67;;;17.40;70.20;;;;;;6208614;22;20023;-75
2023/04/20 10:13:18;;;;;;;4.80;2.92;;;17.20;70.00;;;;;;6211545;22;20420;-75
2023/04/20 10:15:45;;;;;;;6.18;3.40;;;17.50;70.90;;;;;;6262310;22;20026;-75
2023/04/20 10:18:16;;;;;;;5.07;3.30;;;18.10;69.00;;;;;;6241294;22;20066;-77
2023/04/20 10:20:44;;;;;;;4.75;3.00;;;17.90;67.90;;;;;;6241683;22;20022;-75
2023/04/20 10:23:13;;;;;;;4.25;2.88;;;17.60;69.10;;;;;;6266865;22;20024;-77
2023/04/20 10:25:41;;;;;;;6.28;3.60;;;17.40;69.70;;;;;;6242988;22;20023;-78
2023/04/20 10:28:10;;;;;;;6.68;3.22;;;17.80;70.70;;;;;;6236865;22;20019;-79
2023/04/20 10:30:49;;;;;;;7.05;3.08;;;18.20;70.00;;;;;;6218267;22;20034;-77
2023/04/20 10:33:17;;;;;;;4.25;2.45;;;18.40;67.20;;;;;;6212981;22;20023;-77
2023/04/20 10:35:53;;;;;;;5.05;2.97;;;18.80;66.60;;;;;;6240439;22;20366;-75
2023/04/20 10:38:32;;;;;;;6.10;3.10;;;19.10;66.40;;;;;;6241058;22;20024;-77
2023/04/20 10:41:10;;;;;;;4.60;2.63;;;19.30;66.40;;;;;;6233453;22;20027;-77
2023/04/20 10:43:40;;;;;;;4.82;2.33;;;18.90;64.40;;;;;;6210789;22;20043;-77
2023/04/20 10:46:24;;;;;;;4.55;2.80;;;18.40;66.00;;;;;;6262368;22;20030;-77
2023/04/20 10:48:56;;;;;;;3.45;2.35;;;18.10;65.10;;;;;;6267210;22;20047;-77
2023/04/20 10:51:24;;;;;;;3.15;2.33;;;17.90;67.70;;;;;;6239745;22;20020;-76
2023/04/20 10:54:07;;;;;;;5.00;2.58;;;17.80;68.10;;;;;;6264483;22;20016;-77
2023/04/20 10:56:40;;;;;;;4.65;2.28;;;18.50;65.90;;;;;;6240076;22;20100;-77
2023/04/20 10:59:13;;;;;;;3.75;1.98;;;18.50;63.90;;;;;;6212837;22;20043;-77
2023/04/20 11:01:41;;;;;;;4.28;2.40;;;18.80;63.80;;;;;;6211099;22;20397;-77
2023/04/20 11:04:10;;;;;;;3.45;2.17;;;19.30;63.80;;;;;;6235435;22;20434;-77
2023/04/20 11:06:39;;;;;;;4.93;2.15;;;19.50;63.90;;;;;;6214280;22;20016;-77
2023/04/20 11:09:19;;;;;;;4.82;2.20;;;19.70;62.20;;;;;;6211672;22;20024;-77
2023/04/20 11:12:00;;;;;;;4.05;2.20;;;19.80;63.90;;;;;;6235467;22;20020;-75
2023/04/20 11:14:29;;;;;;;4.60;2.30;;;19.80;61.10;;;;;;6218204;22;20020;-77
2023/04/20 11:16:56;;;;;;;3.97;2.00;;;19.60;60.80;;;;;;6240383;22;20022;-77
2023/04/20 11:19:31;;;;;;;3.38;2.13;;;18.90;61.20;;;;;;6212240;22;20024;-77
2023/04/20 11:22:01;;;;;;;3.67;2.13;;;18.50;62.90;;;;;;6261974;22;20030;-78
2023/04/20 11:24:32;;;;;;;4.05;2.50;;;18.20;62.70;;;;;;6263297;22;20027;-77
2023/04/20 11:27:01;;;;;;;3.00;2.37;;;18.10;64.40;;;;;;6213118;22;20097;-77
2023/04/20 11:29:29;;;;;;;2.83;1.75;;;18.20;65.50;;;;;;6238988;22;20380;-77
2023/04/20 11:31:57;;;;;;;2.83;1.73;;;18.10;64.90;;;;;;6235363;22;20434;-77
2023/04/20 11:34:25;;;;;;;4.07;1.63;;;18.30;64.10;;;;;;6239737;22;20359;-77
2023/04/20 11:36:55;;;;;;;5.47;1.75;;;18.90;62.90;;;;;;6212790;22;20016;-75
2023/04/20 11:39:28;;;;;;;3.25;1.90;;;19.30;62.00;;;;;;6208644;22;20027;-77
2023/04/20 11:41:56;;;;;;;3.72;1.85;;;19.60;62.30;;;;;;6236980;22;20797;-77
2023/04/20 11:44:24;;;;;;;3.35;1.80;;;20.00;61.80;;;;;;6212642;22;20027;-77
2023/04/20 11:46:53;;;;;;;2.63;1.85;;;19.40;60.20;;;;;;6264173;22;20015;-77
2023/04/20 11:49:20;;;;;;;4.88;1.70;;;18.90;60.90;;;;;;6211945;22;20077;-77
2023/04/20 11:51:48;;;;;;;6.15;1.27;;;18.70;62.20;;;;;;6240003;22;20293;-77
2023/04/20 11:54:15;;;;;;;1.77;1.30;;;18.50;60.30;;;;;;6211073;22;20093;-77
2023/04/20 11:56:43;;;;;;;3.95;1.48;;;18.50;61.10;;;;;;6236303;22;20440;-78
2023/04/20 11:59:12;;;;;;;5.25;2.05;;;18.40;62.20;;;;;;6211459;22;20515;-77
2023/04/20 12:01:40;;;;;;;2.58;1.75;;;18.40;62.50;;;;;;6272400;22;20016;-77
2023/04/20 12:04:07;;;;;;;3.17;1.65;;;18.30;61.40;;;;;;6237241;22;20028;-77
2023/04/20 12:06:34;;;;;;;4.60;1.98;;;18.30;61.70;;;;;;6235300;22;20541;-77
2023/04/20 12:09:04;;;;;;;3.17;1.67;;;18.30;63.70;;;;;;6211420;22;20451;-78
2023/04/20 12:11:32;;;;;;;3.70;1.70;;;18.80;63.80;;;;;;6236545;22;20422;-77
2023/04/20 12:13:59;;;;;;;3.17;2.33;;;19.50;63.40;;;;;;6236330;22;20020;-77
2023/04/20 12:16:26;;;;;;;3.83;1.88;;;19.90;61.20;;;;;;6224118;22;20078;-77
2023/04/20 12:18:55;;;;;;;4.72;2.10;;;20.10;61.60;;;;;;6240101;22;20026;-76
2023/04/20 12:21:22;;;;;;;3.53;1.83;;;19.30;59.30;;;;;;6236899;22;20022;-77
2023/04/20 12:23:50;;;;;;;3.42;1.75;;;19.00;60.00;;;;;;6236357;22;20019;-75
2023/04/20 12:26:17;;;;;;;3.40;1.50;;;18.70;59.50;;;;;;6211204;22;20536;-76
2023/04/20 12:28:44;;;;;;;2.70;1.48;;;18.50;59.70;;;;;;6237317;22;20138;-76
2023/04/20 12:31:11;;;;;;;2.97;1.52;;;18.70;59.70;;;;;;6240687;22;20545;-77
2023/04/20 12:33:38;;;;;;;2.90;1.60;;;18.90;60.60;;;;;;6213365;22;20020;-76
2023/04/20 12:36:05;;;;;;;4.28;2.15;;;19.00;58.80;;;;;;6265390;22;20019;-77
2023/04/20 12:38:32;;;;;;;3.05;1.65;;;19.10;60.20;;;;;;6241261;22;20362;-77
2023/04/20 12:40:59;;;;;;;3.15;1.52;;;19.20;59.00;;;;;;6243992;22;20565;-77
2023/04/20 12:43:27;;;;;;;2.88;1.60;;;19.10;59.00;;;;;;6268406;22;20024;-77
2023/04/20 12:45:54;;;;;;;3.70;1.73;;;18.90;59.20;;;;;;6263365;22;20099;-77
2023/04/20 12:48:21;;;;;;;2.13;1.10;;;18.80;59.80;;;;;;6236375;22;20117;-77
2023/04/20 12:50:49;;;;;;;5.22;1.65;;;18.80;60.40;;;;;;6220585;22;20023;-77